Time;durP1;ratioP1;P1;durP2;ratioP2;P2;SDS_P1;SDS_P2;PMS_P1;PMS_P2;Temp;Humidity;BMP_temperature;BMP_pressure;BME280_temperature;BME280_humidity;BME280_pressure;Samples;Min_cycle;Max_cycle;Signal;HPM_P1;HPM_P2
2021/01/19 00:00:50;;;;;;;12.57;5.03;;;;;;;2.93;91.76;100857.25;5134784;28;20964;-50
2021/01/19 00:03:16;;;;;;;19.63;7.47;;;;;;;2.92;91.78;100840.19;5136662;28;20452;-54
2021/01/19 00:05:44;;;;;;;8.23;3.37;;;;;;;2.90;91.63;100851.91;5123194;28;20487;-56
2021/01/19 00:08:11;;;;;;;22.27;7.40;;;;;;;2.93;92.03;100847.94;5136802;28;20484;-54
2021/01/19 00:10:38;;;;;;;22.83;7.83;;;;;;;2.88;91.85;100840.72;5134787;28;20508;-52
2021/01/19 00:13:05;;;;;;;15.53;6.20;;;;;;;2.90;91.94;100831.53;5136391;28;20509;-54
2021/01/19 00:15:31;;;;;;;16.70;6.33;;;;;;;2.91;91.75;100836.75;5134385;28;20480;-53
2021/01/19 00:17:58;;;;;;;21.57;6.70;;;;;;;2.93;91.49;100834.31;5136702;28;20454;-54
2021/01/19 00:20:25;;;;;;;13.07;6.23;;;;;;;2.90;91.43;100837.53;5135128;28;20487;-59
2021/01/19 00:22:52;;;;;;;11.70;2.33;;;;;;;2.86;91.60;100832.09;5136333;28;20490;-55
2021/01/19 00:25:23;;;;;;;23.53;8.63;;;;;;;2.90;91.64;100828.97;5134270;28;20914;-54
2021/01/19 00:27:50;;;;;;;22.13;8.57;;;;;;;2.92;91.55;100827.44;5137173;27;20452;-52
2021/01/19 00:30:17;;;;;;;22.03;7.90;;;;;;;2.94;91.35;100825.88;5134678;27;20563;-58
2021/01/19 00:32:45;;;;;;;5.67;3.10;;;;;;;2.90;91.31;100823.88;5140011;27;20451;-51
2021/01/19 00:35:12;;;;;;;8.20;3.73;;;;;;;2.90;91.32;100829.88;5126644;27;20469;-56
2021/01/19 00:37:38;;;;;;;8.93;4.37;;;;;;;2.88;91.53;100835.63;5119520;28;20536;-54
2021/01/19 00:40:07;;;;;;;13.30;6.00;;;;;;;2.86;91.65;100832.09;5121153;27;20495;-55
2021/01/19 00:42:34;;;;;;;13.60;5.00;;;;;;;2.90;91.50;100823.88;5139862;27;20456;-55
2021/01/19 00:45:01;;;;;;;23.60;7.13;;;;;;;2.82;91.80;100823.34;5133327;27;20562;-54
2021/01/19 00:47:27;;;;;;;31.70;8.70;;;;;;;2.89;91.79;100819.56;5138817;27;20450;-53
2021/01/19 00:49:54;;;;;;;19.13;7.27;;;;;;;2.84;91.52;100824.31;5133675;27;20925;-53
2021/01/19 00:52:21;;;;;;;23.00;5.90;;;;;;;2.87;91.53;100805.81;5119431;27;20543;-55
2021/01/19 00:54:47;;;;;;;18.97;8.87;;;;;;;2.88;91.56;100800.84;5116277;27;20542;-55
2021/01/19 00:57:15;;;;;;;22.40;6.40;;;;;;;2.84;91.35;100792.06;5138373;27;20909;-52
2021/01/19 00:59:42;;;;;;;22.83;8.50;;;;;;;2.85;91.41;100795.50;5135672;27;20471;-53
2021/01/19 01:02:09;;;;;;;23.97;8.67;;;;;;;2.89;91.17;100792.41;5139747;27;20796;-54
2021/01/19 01:04:36;;;;;;;20.50;7.80;;;;;;;2.87;91.22;100793.06;5137514;27;20450;-57
2021/01/19 01:07:02;;;;;;;14.87;5.90;;;;;;;2.87;91.18;100778.66;5139873;27;20844;-57
2021/01/19 01:09:37;;;;;;;9.73;4.47;;;;;;;2.84;90.97;100775.91;5137549;27;20457;-52
2021/01/19 01:12:04;;;;;;;16.60;6.20;;;;;;;2.84;90.73;100769.13;5138925;27;20512;-54
2021/01/19 01:14:32;;;;;;;9.57;4.63;;;;;;;2.83;90.78;100766.47;5137410;27;20476;-54
2021/01/19 01:16:59;;;;;;;26.20;10.30;;;;;;;2.86;90.60;100759.03;5139146;27;20501;-55
2021/01/19 01:19:25;;;;;;;14.23;6.13;;;;;;;2.83;90.06;100772.44;5137683;27;20535;-57
2021/01/19 01:21:52;;;;;;;23.37;10.53;;;;;;;2.84;90.27;100761.47;5139175;27;20452;-55
2021/01/19 01:24:19;;;;;;;19.57;9.10;;;;;;;2.86;90.34;100760.72;5137135;27;20448;-55
2021/01/19 01:26:46;;;;;;;7.90;4.20;;;;;;;2.84;90.30;100765.69;5138658;27;20483;-54
2021/01/19 01:29:13;;;;;;;23.37;9.33;;;;;;;2.82;90.46;100764.72;5137462;27;20445;-56
2021/01/19 01:31:40;;;;;;;21.20;10.37;;;;;;;2.75;90.92;100755.72;5138157;27;20522;-56
2021/01/19 01:34:07;;;;;;;14.70;7.07;;;;;;;2.77;90.66;100740.56;5138465;27;20760;-50
2021/01/19 01:36:39;;;;;;;17.43;8.53;;;;;;;2.80;90.59;100739.09;5137243;27;20485;-55
2021/01/19 01:39:06;;;;;;;21.70;10.00;;;;;;;2.79;90.60;100742.44;5138620;27;20862;-52
2021/01/19 01:41:32;;;;;;;12.17;5.80;;;;;;;2.76;90.70;100732.00;5136762;27;20483;-55
2021/01/19 01:44:01;;;;;;;18.83;9.40;;;;;;;2.74;90.64;100725.91;5138599;27;20513;-56
2021/01/19 01:46:30;;;;;;;21.47;9.47;;;;;;;2.79;90.10;100734.78;5136750;27;20549;-52
2021/01/19 01:48:58;;;;;;;18.73;7.17;;;;;;;2.76;90.26;100729.47;5137099;27;20539;-52
2021/01/19 01:51:25;;;;;;;38.20;12.40;;;;;;;2.71;90.49;100725.69;5130186;27;20571;-55
2021/01/19 01:53:51;;;;;;;27.93;10.50;;;;;;;2.75;90.42;100735.34;5136903;27;20450;-48
2021/01/19 01:56:19;;;;;;;13.20;5.10;;;;;;;2.72;90.51;100737.63;5134691;27;20495;-58
2021/01/19 01:58:46;;;;;;;12.37;5.27;;;;;;;2.68;90.22;100730.56;5137170;27;20467;-54
2021/01/19 02:01:12;;;;;;;20.70;8.00;;;;;;;2.61;90.60;100721.56;5135453;27;20473;-53
2021/01/19 02:03:39;;;;;;;21.37;9.70;;;;;;;2.66;90.34;100711.75;5137361;27;20479;-54
2021/01/19 02:06:07;;;;;;;22.17;10.10;;;;;;;2.62;90.31;100713.16;5134951;27;20963;-51
2021/01/19 02:08:42;;;;;;;21.37;9.37;;;;;;;2.58;90.66;100712.81;5137072;27;20535;-53
2021/01/19 02:11:21;;;;;;;13.33;6.40;;;;;;;2.56;90.19;100716.16;5135484;27;20480;-52
2021/01/19 02:13:58;;;;;;;21.30;8.80;;;;;;;2.55;90.21;100714.38;5137112;27;20480;-55
2021/01/19 02:16:34;;;;;;;17.63;7.23;;;;;;;2.55;89.86;100703.28;5132690;27;20490;-55
2021/01/19 02:19:12;;;;;;;21.93;9.00;;;;;;;2.50;89.93;100702.97;5138551;27;20530;-50
2021/01/19 02:21:56;;;;;;;30.83;11.30;;;;;;;2.50;90.33;100696.97;5137793;27;20758;-52
2021/01/19 02:24:31;;;;;;;32.40;12.50;;;;;;;2.43;90.16;100691.44;5136470;27;20452;-55
2021/01/19 02:27:21;;;;;;;25.37;11.20;;;;;;;2.44;90.32;100692.31;5138010;27;20546;-58
2021/01/19 02:30:07;;;;;;;29.10;11.77;;;;;;;2.41;90.25;100692.13;5136520;27;20511;-55
2021/01/19 02:32:41;;;;;;;31.87;12.70;;;;;;;2.37;90.45;100692.66;5137786;27;20884;-55
2021/01/19 02:35:12;;;;;;;33.77;11.33;;;;;;;2.39;90.48;100691.09;5136116;27;20559;-56
2021/01/19 02:37:48;;;;;;;27.83;12.70;;;;;;;2.35;90.61;100678.94;5138068;27;20502;-55
2021/01/19 02:40:17;;;;;;;22.60;10.87;;;;;;;2.31;90.79;100684.56;5135779;27;20480;-51
2021/01/19 02:42:48;;;;;;;36.50;13.80;;;;;;;2.34;90.89;100682.22;5137657;27;20501;-52
2021/01/19 02:45:15;;;;;;;22.93;9.40;;;;;;;2.29;90.96;100680.25;5135571;27;20973;-52
2021/01/19 02:47:42;;;;;;;24.53;9.50;;;;;;;2.32;90.90;100674.50;5137493;27;20539;-54
2021/01/19 02:50:10;;;;;;;17.47;6.90;;;;;;;2.25;91.33;100673.13;5136077;27;20451;-53
2021/01/19 02:52:38;;;;;;;30.13;12.47;;;;;;;2.26;91.35;100680.00;5136652;27;20457;-55
2021/01/19 02:55:07;;;;;;;42.53;14.97;;;;;;;2.31;91.25;100667.63;5134671;27;20936;-54
2021/01/19 02:57:59;;;;;;;37.10;16.13;;;;;;;2.36;91.39;100650.13;5137097;27;20473;-55
2021/01/19 03:00:29;;;;;;;27.23;12.57;;;;;;;2.27;91.29;100656.31;5135638;27;20538;-56
2021/01/19 03:02:57;;;;;;;34.90;11.87;;;;;;;2.30;91.14;100650.56;5137381;27;20864;-55
2021/01/19 03:05:24;;;;;;;39.10;13.50;;;;;;;2.32;91.28;100643.94;5135615;27;20528;-54
2021/01/19 03:07:51;;;;;;;43.63;17.40;;;;;;;2.32;91.14;100632.84;5137605;27;20502;-53
2021/01/19 03:10:19;;;;;;;38.53;17.10;;;;;;;2.37;91.13;100629.00;5135726;27;20868;-56
2021/01/19 03:12:46;;;;;;;32.93;15.23;;;;;;;2.29;91.31;100629.31;5137200;27;20456;-54
2021/01/19 03:15:14;;;;;;;32.13;13.17;;;;;;;2.33;91.34;100621.88;5135111;27;20565;-54
2021/01/19 03:17:43;;;;;;;25.90;9.73;;;;;;;2.33;91.25;100629.53;5137252;27;20881;-50
2021/01/19 03:20:13;;;;;;;37.50;15.40;;;;;;;2.31;91.43;100626.00;5135805;27;20786;-49
2021/01/19 03:22:40;;;;;;;46.33;21.40;;;;;;;2.33;91.39;100612.59;5137349;27;20475;-48
2021/01/19 03:25:08;;;;;;;38.10;17.07;;;;;;;2.34;91.42;100610.91;5135291;27;20468;-57
2021/01/19 03:27:35;;;;;;;40.67;19.87;;;;;;;2.38;91.41;100607.84;5136914;28;20560;-55
2021/01/19 03:30:02;;;;;;;36.17;15.20;;;;;;;2.39;91.36;100605.41;5134889;28;20921;-56
2021/01/19 03:32:29;;;;;;;34.40;15.97;;;;;;;2.35;91.37;100598.31;5136851;28;20452;-55
2021/01/19 03:34:55;;;;;;;50.80;22.07;;;;;;;2.43;91.28;100596.31;5135059;27;20461;-51
2021/01/19 03:37:23;;;;;;;40.13;19.10;;;;;;;2.43;91.17;100591.22;5137264;28;20472;-51
2021/01/19 03:39:50;;;;;;;44.43;19.87;;;;;;;2.40;91.32;100585.91;5135589;27;20503;-51
2021/01/19 03:42:16;;;;;;;46.17;21.00;;;;;;;2.40;91.37;100576.59;5137089;28;20458;-58
2021/01/19 03:44:44;;;;;;;31.67;13.60;;;;;;;2.41;91.15;100578.38;5135029;27;20479;-49
2021/01/19 03:47:11;;;;;;;50.80;22.63;;;;;;;2.47;91.29;100577.06;5136802;28;20463;-56
2021/01/19 03:49:38;;;;;;;44.53;19.70;;;;;;;2.47;91.21;100572.84;5135595;27;20573;-57
2021/01/19 03:52:05;;;;;;;43.60;17.67;;;;;;;2.41;91.46;100568.19;5137208;28;20454;-55
2021/01/19 03:54:32;;;;;;;42.00;19.67;;;;;;;2.41;91.60;100562.22;5134973;27;20504;-50
2021/01/19 03:56:59;;;;;;;26.97;10.27;;;;;;;2.43;91.60;100561.53;5136695;28;20486;-56
2021/01/19 03:59:26;;;;;;;39.43;16.00;;;;;;;2.44;91.39;100552.25;5135320;27;20431;-52
2021/01/19 04:01:53;;;;;;;29.73;13.43;;;;;;;2.46;91.58;100555.78;5136812;28;20439;-57
2021/01/19 04:04:20;;;;;;;23.53;10.30;;;;;;;2.42;91.48;100541.06;5138327;27;20542;-55
2021/01/19 04:06:46;;;;;;;40.93;16.90;;;;;;;2.43;91.61;100545.38;5140787;27;20826;-53
2021/01/19 04:09:19;;;;;;;24.93;10.53;;;;;;;2.42;91.71;100538.53;5135187;27;20456;-57
2021/01/19 04:11:46;;;;;;;38.87;17.77;;;;;;;2.42;91.92;100533.44;5140761;27;20479;-56
2021/01/19 04:14:15;;;;;;;27.17;12.67;;;;;;;2.45;92.04;100532.78;5138756;27;20479;-57
2021/01/19 04:16:42;;;;;;;40.47;16.60;;;;;;;2.47;91.88;100527.00;5140432;27;20569;-56
2021/01/19 04:19:09;;;;;;;53.20;22.80;;;;;;;2.51;91.97;100523.00;5140770;27;20542;-55
2021/01/19 04:21:35;;;;;;;48.63;17.83;;;;;;;2.46;91.84;100517.56;5139038;27;20474;-55
2021/01/19 04:24:02;;;;;;;37.07;16.90;;;;;;;2.48;92.06;100513.50;5140451;27;20543;-58
2021/01/19 04:26:29;;;;;;;36.07;16.87;;;;;;;2.47;91.98;100505.75;5138688;27;20457;-55
2021/01/19 04:28:57;;;;;;;33.03;15.53;;;;;;;2.45;92.07;100508.16;5140305;27;20771;-52
2021/01/19 04:31:23;;;;;;;40.20;18.00;;;;;;;2.48;92.05;100505.84;5138693;27;20553;-52
2021/01/19 04:33:50;;;;;;;41.57;17.77;;;;;;;2.52;92.11;100491.66;5140504;27;20487;-55
2021/01/19 04:36:16;;;;;;;57.60;23.50;;;;;;;2.54;92.04;100483.38;5138686;27;20500;-55
2021/01/19 04:38:43;;;;;;;51.17;20.30;;;;;;;2.51;92.38;100480.59;5140302;27;20483;-52
2021/01/19 04:41:10;;;;;;;46.80;21.40;;;;;;;2.53;92.25;100467.97;5138432;27;20479;-58
2021/01/19 04:43:37;;;;;;;39.77;18.33;;;;;;;2.46;92.63;100469.19;5140248;27;20456;-59
2021/01/19 04:46:06;;;;;;;38.13;15.70;;;;;;;2.48;92.96;100466.75;5138291;27;20462;-54
2021/01/19 04:48:32;;;;;;;26.67;10.00;;;;;;;2.44;92.77;100475.84;5140090;27;20459;-55
2021/01/19 04:50:59;;;;;;;38.00;16.20;;;;;;;2.39;93.14;100461.91;5138414;27;20479;-57
2021/01/19 04:53:29;;;;;;;36.17;15.50;;;;;;;2.35;93.48;100465.03;5140202;27;20774;-51
2021/01/19 04:55:59;;;;;;;38.63;16.00;;;;;;;2.23;93.83;100454.84;5137290;27;20551;-55
2021/01/19 04:58:29;;;;;;;30.52;12.18;;;;;;;2.28;93.90;100464.59;5140156;27;20434;-57
2021/01/19 05:01:07;;;;;;;47.00;20.97;;;;;;;2.23;94.19;100455.75;5138123;27;20756;-52
2021/01/19 05:03:39;;;;;;;45.77;19.70;;;;;;;2.22;94.55;100443.78;5139273;27;20493;-58
2021/01/19 05:06:53;;;;;;;31.60;13.00;;;;;;;2.16;94.51;100445.91;5137648;27;20478;-51
2021/01/19 05:09:21;;;;;;;34.57;15.97;;;;;;;2.20;94.64;100430.06;5138003;27;20491;-51
2021/01/19 05:11:50;;;;;;;39.30;16.52;;;;;;;2.18;94.54;100425.63;5139691;27;20491;-52
2021/01/19 05:14:20;;;;;;;30.97;13.40;;;;;;;2.10;94.00;100415.78;5136833;27;20229;-56
2021/01/19 05:16:49;;;;;;;38.70;15.90;;;;;;;2.12;94.10;100421.91;5139366;27;20814;-56
2021/01/19 05:19:17;;;;;;;38.97;18.57;;;;;;;2.09;94.74;100415.69;5137931;27;20879;-52
2021/01/19 05:21:44;;;;;;;34.40;15.17;;;;;;;2.08;94.47;100401.19;5139603;27;20454;-52
2021/01/19 05:24:11;;;;;;;38.22;17.55;;;;;;;2.01;94.87;100403.31;5139183;27;20460;-55
2021/01/19 05:26:40;;;;;;;36.63;16.50;;;;;;;2.02;95.09;100397.44;5138215;27;20223;-55
2021/01/19 05:29:07;;;;;;;16.40;7.40;;;;;;;1.92;94.77;100392.50;5139234;27;20463;-56
2021/01/19 05:31:34;;;;;;;19.27;7.90;;;;;;;1.83;94.50;100390.16;5132832;27;20826;-52
2021/01/19 05:34:09;;;;;;;21.50;10.05;;;;;;;1.82;94.37;100385.88;5138698;27;20513;-56
2021/01/19 05:36:47;;;;;;;25.65;11.18;;;;;;;1.80;94.61;100376.34;5137160;27;20238;-49
2021/01/19 05:39:16;;;;;;;9.57;3.77;;;;;;;1.79;94.63;100377.13;5137497;27;20231;-54
2021/01/19 05:41:44;;;;;;;10.73;5.50;;;;;;;1.76;95.02;100367.63;5138958;27;20485;-55
2021/01/19 05:44:20;;;;;;;18.13;7.70;;;;;;;1.71;95.18;100358.78;5138728;27;20204;-50
2021/01/19 05:46:52;;;;;;;23.60;11.00;;;;;;;1.72;95.36;100358.88;5137873;27;20445;-54
2021/01/19 05:49:21;;;;;;;22.40;9.15;;;;;;;1.75;95.69;100348.91;5137244;27;20430;-57
2021/01/19 05:51:49;;;;;;;24.27;8.70;;;;;;;1.68;95.49;100346.72;5138773;27;20313;-53
2021/01/19 05:54:27;;;;;;;26.80;12.90;;;;;;;1.70;95.50;100332.44;5136882;27;20534;-54
2021/01/19 05:57:06;;;;;;;23.47;11.90;;;;;;;1.71;95.42;100326.59;5138806;27;20452;-54
2021/01/19 05:59:38;;;;;;;27.47;12.70;;;;;;;1.69;94.93;100323.03;5137085;27;20835;-58
2021/01/19 06:02:07;;;;;;;16.52;7.32;;;;;;;1.63;95.17;100322.59;5138716;27;20559;-56
2021/01/19 06:04:37;;;;;;;11.23;6.00;;;;;;;1.63;94.82;100312.44;5136769;27;20227;-57
2021/01/19 06:07:04;;;;;;;24.08;10.10;;;;;;;1.64;94.50;100304.03;5138440;27;20263;-56
2021/01/19 06:09:31;;;;;;;17.48;7.22;;;;;;;1.61;94.83;100288.56;5136968;27;20203;-57
2021/01/19 06:11:58;;;;;;;20.60;9.20;;;;;;;1.63;95.06;100292.09;5138167;27;20683;-53
2021/01/19 06:14:26;;;;;;;25.13;11.10;;;;;;;1.62;95.04;100287.78;5136446;27;20223;-49
2021/01/19 06:17:04;;;;;;;18.50;8.30;;;;;;;1.63;94.77;100281.06;5138130;27;20994;-55
2021/01/19 06:19:32;;;;;;;22.65;11.52;;;;;;;1.64;95.01;100276.03;5136800;27;20198;-55
2021/01/19 06:22:05;;;;;;;21.15;9.45;;;;;;;1.62;95.46;100267.44;5138150;27;20289;-56
2021/01/19 06:24:36;;;;;;;13.20;6.00;;;;;;;1.50;95.19;100256.41;5136189;27;20195;-56
2021/01/19 06:27:03;;;;;;;13.73;7.03;;;;;;;1.49;94.82;100258.09;5138041;27;20486;-55
2021/01/19 06:29:31;;;;;;;19.65;10.13;;;;;;;1.51;94.98;100250.53;5136389;27;20207;-52
2021/01/19 06:32:00;;;;;;;19.20;8.17;;;;;;;1.47;95.25;100245.25;5137738;27;20235;-57
2021/01/19 06:34:34;;;;;;;9.05;3.95;;;;;;;1.42;95.48;100245.69;5136230;27;20455;-53
2021/01/19 06:37:02;;;;;;;14.38;6.97;;;;;;;1.45;95.50;100241.69;5138093;27;20591;-52
2021/01/19 06:39:38;;;;;;;15.70;6.68;;;;;;;1.45;95.67;100228.97;5136150;27;20244;-52
2021/01/19 06:42:10;;;;;;;21.15;10.82;;;;;;;1.44;95.56;100227.22;5137884;27;20501;-54
2021/01/19 06:44:39;;;;;;;12.88;7.00;;;;;;;1.52;95.59;100219.25;5136080;27;20230;-54
2021/01/19 06:47:06;;;;;;;11.48;4.85;;;;;;;1.41;95.26;100219.41;5137648;27;20250;-56
2021/01/19 06:49:52;;;;;;;14.93;8.20;;;;;;;1.47;94.63;100213.84;5136154;27;20291;-52
2021/01/19 06:52:21;;;;;;;9.93;4.50;;;;;;;1.42;94.70;100203.34;5137762;27;20571;-53
2021/01/19 06:55:06;;;;;;;19.48;10.13;;;;;;;1.42;95.07;100200.81;5135635;27;20322;-49
2021/01/19 06:57:53;;;;;;;25.98;13.05;;;;;;;1.50;95.23;100196.28;5137255;27;20214;-53
2021/01/19 07:00:21;;;;;;;7.45;3.47;;;;;;;1.45;95.03;100187.44;5135833;27;20245;-50
2021/01/19 07:02:49;;;;;;;21.10;11.48;;;;;;;1.41;95.12;100181.25;5137604;27;20289;-55
2021/01/19 07:05:17;;;;;;;22.33;10.50;;;;;;;1.42;95.59;100185.56;5135639;27;20235;-57
2021/01/19 07:07:45;;;;;;;17.85;8.38;;;;;;;1.44;95.41;100175.50;5137410;27;20459;-54
2021/01/19 07:10:16;;;;;;;27.05;11.00;;;;;;;1.48;95.21;100178.34;5135126;27;20301;-51
2021/01/19 07:13:03;;;;;;;22.00;10.45;;;;;;;1.43;95.56;100164.44;5137432;27;20198;-51
2021/01/19 07:16:04;;;;;;;19.80;10.48;;;;;;;1.46;95.55;100161.22;5135386;27;20234;-56
2021/01/19 07:19:01;;;;;;;19.45;8.48;;;;;;;1.46;95.86;100167.22;5137100;27;20198;-56
2021/01/19 07:21:41;;;;;;;14.90;7.57;;;;;;;1.41;94.86;100158.38;5135780;27;20260;-58
2021/01/19 07:24:17;;;;;;;11.02;4.78;;;;;;;1.45;94.55;100149.31;5136779;27;20539;-53
2021/01/19 07:26:45;;;;;;;18.73;10.40;;;;;;;1.47;94.88;100147.72;5136845;28;20598;-51
2021/01/19 07:29:12;;;;;;;14.70;7.32;;;;;;;1.46;94.46;100157.03;5137252;28;20282;-55
2021/01/19 07:31:39;;;;;;;9.52;4.47;;;;;;;1.42;94.83;100151.63;5136764;28;20652;-54
2021/01/19 07:34:07;;;;;;;17.58;9.50;;;;;;;1.44;94.95;100143.31;5136750;28;20229;-53
2021/01/19 07:36:34;;;;;;;18.98;8.75;;;;;;;1.48;94.90;100145.31;5134605;27;20545;-52
2021/01/19 07:39:13;;;;;;;18.27;9.20;;;;;;;1.43;95.11;100135.59;5140084;27;20287;-53
2021/01/19 07:41:42;;;;;;;13.35;6.75;;;;;;;1.40;95.26;100121.03;5139880;27;20303;-58
2021/01/19 07:44:18;;;;;;;23.35;11.55;;;;;;;1.41;95.48;100122.78;5141176;27;20226;-54
2021/01/19 07:47:33;;;;;;;16.45;7.45;;;;;;;1.42;95.33;100116.03;5140769;27;20229;-48
2021/01/19 07:50:01;;;;;;;19.35;10.35;;;;;;;1.41;95.15;100116.81;5139727;27;20534;-55
2021/01/19 07:52:36;;;;;;;22.60;9.80;;;;;;;1.39;95.21;100109.06;5141112;27;20596;-54
2021/01/19 07:55:16;;;;;;;20.73;9.82;;;;;;;1.40;95.15;100102.34;5139070;27;20325;-53
2021/01/19 07:57:46;;;;;;;20.10;8.67;;;;;;;1.38;95.09;100097.13;5141096;27;20202;-53
2021/01/19 08:00:20;;;;;;;15.30;9.07;;;;;;;1.42;95.19;100099.13;5139358;27;20476;-52
2021/01/19 08:02:46;;;;;;;26.00;11.98;;;;;;;1.44;94.95;100087.38;5140933;27;20198;-54
2021/01/19 08:05:14;;;;;;;8.30;4.50;;;;;;;1.43;95.07;100090.72;5138949;27;20318;-52
2021/01/19 08:07:42;;;;;;;18.75;9.43;;;;;;;1.46;95.16;100085.84;5141085;27;20563;-55
2021/01/19 08:10:20;;;;;;;20.30;10.45;;;;;;;1.44;94.78;100082.28;5139261;27;20266;-54
2021/01/19 08:12:49;;;;;;;29.95;11.30;;;;;;;1.44;94.94;100067.03;5140854;27;20198;-53
2021/01/19 08:15:23;;;;;;;17.98;8.82;;;;;;;1.43;95.28;100064.41;5138863;27;20234;-52
2021/01/19 08:17:51;;;;;;;19.02;8.90;;;;;;;1.40;95.26;100065.09;5140921;27;20289;-55
2021/01/19 08:20:29;;;;;;;8.85;4.65;;;;;;;1.37;95.20;100064.88;5139025;27;20302;-56
2021/01/19 08:22:57;;;;;;;6.88;3.65;;;;;;;1.42;95.14;100058.44;5140742;27;20491;-54
2021/01/19 08:25:28;;;;;;;18.80;7.03;;;;;;;1.34;95.26;100049.44;5138711;27;20569;-55
2021/01/19 08:27:58;;;;;;;14.40;7.10;;;;;;;1.38;95.18;100050.50;5140383;27;20651;-55
2021/01/19 08:30:26;;;;;;;16.52;8.20;;;;;;;1.40;95.31;100044.75;5138915;27;20230;-51
2021/01/19 08:32:54;;;;;;;10.30;5.75;;;;;;;1.41;95.13;100046.50;5140119;27;20199;-54
2021/01/19 08:35:22;;;;;;;15.83;7.07;;;;;;;1.40;94.98;100039.66;5138352;27;20238;-51
2021/01/19 08:37:50;;;;;;;15.25;6.75;;;;;;;1.39;95.13;100037.88;5140204;27;20885;-54
2021/01/19 08:40:25;;;;;;;15.85;8.13;;;;;;;1.44;95.13;100026.38;5138602;27;20238;-54
2021/01/19 08:42:53;;;;;;;17.92;9.05;;;;;;;1.42;95.04;100020.31;5140335;27;20659;-55
2021/01/19 08:45:27;;;;;;;19.05;8.70;;;;;;;1.40;95.32;100008.28;5138043;27;20226;-51
2021/01/19 08:47:55;;;;;;;18.33;9.40;;;;;;;1.48;95.33;100008.00;5140089;27;20203;-56
2021/01/19 08:50:23;;;;;;;19.30;9.10;;;;;;;1.52;95.01;100008.19;5137323;27;20250;-55
2021/01/19 08:52:51;;;;;;;17.70;6.80;;;;;;;1.45;94.85;99997.59;5140191;27;20472;-50
2021/01/19 08:55:18;;;;;;;13.27;6.28;;;;;;;1.40;95.12;99996.44;5137772;27;20313;-58
2021/01/19 08:57:55;;;;;;;10.25;5.07;;;;;;;1.47;95.09;99990.97;5139409;27;20473;-53
2021/01/19 09:00:27;;;;;;;15.77;5.60;;;;;;;1.43;95.00;99990.69;5137549;27;20236;-57
2021/01/19 09:02:54;;;;;;;11.80;6.03;;;;;;;1.41;95.20;99992.22;5140022;27;20195;-53
2021/01/19 09:05:25;;;;;;;13.35;7.43;;;;;;;1.47;95.26;99978.28;5137719;27;20241;-56
2021/01/19 09:07:52;;;;;;;12.68;5.47;;;;;;;1.44;94.99;99979.75;5139232;27;20203;-55
2021/01/19 09:10:22;;;;;;;11.07;3.87;;;;;;;1.43;95.15;99972.91;5138016;27;20257;-55
2021/01/19 09:12:50;;;;;;;2.50;1.38;;;;;;;1.39;94.53;99976.88;5139627;27;20543;-55
2021/01/19 09:15:17;;;;;;;8.35;3.78;;;;;;;1.40;95.12;99971.03;5137480;27;20262;-53
2021/01/19 09:17:51;;;;;;;10.50;5.00;;;;;;;1.39;95.26;99965.84;5139595;27;20238;-56
2021/01/19 09:20:18;;;;;;;11.83;6.03;;;;;;;1.36;95.47;99963.97;5138007;27;20832;-56
2021/01/19 09:22:45;;;;;;;9.57;5.13;;;;;;;1.43;95.69;99958.50;5139350;27;20491;-53
2021/01/19 09:25:12;;;;;;;9.15;4.28;;;;;;;1.33;95.81;99954.47;5137321;27;20241;-56
2021/01/19 09:27:39;;;;;;;16.00;6.47;;;;;;;1.38;95.56;99954.78;5139028;27;20294;-52
2021/01/19 09:30:08;;;;;;;7.82;2.97;;;;;;;1.38;95.20;99947.13;5137489;27;20247;-56
2021/01/19 09:32:38;;;;;;;8.07;4.43;;;;;;;1.36;95.45;99936.00;5139032;27;20515;-51
2021/01/19 09:35:07;;;;;;;4.07;2.60;;;;;;;1.41;95.60;99929.56;5137327;27;20260;-52
2021/01/19 09:37:34;;;;;;;7.97;4.05;;;;;;;1.40;95.42;99932.91;5135867;27;20791;-56
2021/01/19 09:40:01;;;;;;;10.60;4.85;;;;;;;1.40;94.90;99922.72;5136854;27;20236;-52
2021/01/19 09:42:28;;;;;;;1.95;1.15;;;;;;;1.28;94.71;99921.91;5139002;27;20198;-50
2021/01/19 09:44:54;;;;;;;18.60;8.57;;;;;;;1.27;95.01;99915.09;5136888;27;20326;-52
2021/01/19 09:47:24;;;;;;;3.37;1.37;;;;;;;1.20;94.78;99911.25;5138747;27;20309;-49
2021/01/19 09:49:54;;;;;;;8.32;3.90;;;;;;;1.18;94.71;99907.72;5137081;27;20559;-53
2021/01/19 09:52:29;;;;;;;5.20;2.92;;;;;;;1.24;94.78;99902.16;5138844;27;20222;-53
2021/01/19 09:55:06;;;;;;;2.95;1.40;;;;;;;1.25;94.85;99898.81;5136640;27;20663;-57
2021/01/19 09:57:32;;;;;;;5.13;2.50;;;;;;;1.17;95.02;99889.03;5138479;27;20236;-56
2021/01/19 09:59:59;;;;;;;4.80;2.75;;;;;;;1.25;94.98;99887.00;5136749;27;20271;-54
2021/01/19 10:02:28;;;;;;;5.57;2.60;;;;;;;1.24;94.90;99879.28;5137872;27;20233;-52
2021/01/19 10:04:59;;;;;;;11.00;5.50;;;;;;;1.26;95.15;99872.63;5136770;27;20271;-59
2021/01/19 10:07:30;;;;;;;10.27;3.55;;;;;;;1.27;94.90;99872.72;5138536;27;20238;-54
2021/01/19 10:10:07;;;;;;;5.47;2.70;;;;;;;1.31;94.77;99861.09;5136568;27;20241;-54
2021/01/19 10:12:33;;;;;;;10.07;4.93;;;;;;;1.29;94.90;99853.38;5138237;27;20602;-55
2021/01/19 10:15:00;;;;;;;3.80;2.15;;;;;;;1.30;95.17;99854.25;5136277;27;20231;-56
2021/01/19 10:17:28;;;;;;;15.50;6.82;;;;;;;1.35;95.25;99837.66;5138321;27;20310;-50
2021/01/19 10:20:06;;;;;;;3.90;2.00;;;;;;;1.33;95.30;99835.00;5136651;27;20562;-57
2021/01/19 10:22:33;;;;;;;6.57;3.50;;;;;;;1.39;95.34;99829.41;5138105;27;20198;-53
2021/01/19 10:24:59;;;;;;;7.63;3.58;;;;;;;1.53;95.39;99827.75;5136503;27;20250;-56
2021/01/19 10:27:29;;;;;;;5.28;2.88;;;;;;;1.50;95.25;99821.59;5137822;27;20313;-56
2021/01/19 10:29:55;;;;;;;4.30;2.67;;;;;;;1.52;95.31;99812.41;5134328;27;20245;-51
2021/01/19 10:32:22;;;;;;;3.90;2.90;;;;;;;1.50;95.51;99806.34;5137842;27;20452;-54
2021/01/19 10:34:51;;;;;;;11.23;4.70;;;;;;;1.51;95.72;99803.91;5135705;27;20499;-49
2021/01/19 10:37:19;;;;;;;5.60;3.30;;;;;;;1.56;95.46;99794.03;5138045;27;20588;-58
2021/01/19 10:39:49;;;;;;;6.65;2.90;;;;;;;1.60;95.52;99788.34;5135924;27;20478;-52
2021/01/19 10:42:26;;;;;;;6.50;3.67;;;;;;;1.63;95.29;99792.75;5137951;27;20245;-55
2021/01/19 10:44:55;;;;;;;4.85;2.80;;;;;;;1.69;95.26;99794.00;5136214;27;20514;-54
2021/01/19 10:47:22;;;;;;;17.40;7.33;;;;;;;1.72;95.39;99788.22;5137532;27;20222;-58
2021/01/19 10:49:49;;;;;;;6.38;3.92;;;;;;;1.71;95.32;99774.66;5135925;27;20443;-48
2021/01/19 10:52:16;;;;;;;8.30;2.63;;;;;;;1.70;95.36;99780.50;5137545;27;20226;-50
2021/01/19 10:54:44;;;;;;;5.13;3.47;;;;;;;1.75;95.00;99776.56;5134980;27;20472;-54
2021/01/19 10:57:11;;;;;;;9.10;4.13;;;;;;;1.79;95.07;99769.16;5137443;27;20647;-52
2021/01/19 10:59:37;;;;;;;36.60;11.50;;;;;;;1.85;95.42;99764.44;5135354;27;20228;-56
2021/01/19 11:02:05;;;;;;;5.80;2.80;;;;;;;1.83;94.99;99755.81;5137293;27;20881;-52
2021/01/19 11:04:32;;;;;;;5.10;3.00;;;;;;;1.80;95.43;99753.09;5135428;27;20447;-53
2021/01/19 11:07:00;;;;;;;23.63;6.80;;;;;;;1.92;95.73;99742.75;5137023;27;20777;-55
2021/01/19 11:09:27;;;;;;;6.33;3.50;;;;;;;1.89;95.50;99741.81;5135157;27;20432;-60
2021/01/19 11:11:54;;;;;;;4.40;2.67;;;;;;;1.95;95.56;99740.41;5136683;27;20547;-57
2021/01/19 11:14:21;;;;;;;10.83;4.33;;;;;;;2.00;95.54;99736.50;5134673;27;20913;-51
2021/01/19 11:16:48;;;;;;;10.73;4.13;;;;;;;2.02;95.60;99732.38;5136948;27;20488;-54
2021/01/19 11:19:15;;;;;;;6.80;3.40;;;;;;;2.07;95.59;99735.19;5135763;27;20984;-50
2021/01/19 11:21:43;;;;;;;6.73;3.07;;;;;;;2.09;95.27;99723.41;5137032;27;20525;-54
2021/01/19 11:24:12;;;;;;;7.10;4.20;;;;;;;2.11;95.39;99721.84;5136893;27;20472;-52
2021/01/19 11:26:40;;;;;;;7.50;3.63;;;;;;;2.18;95.45;99718.88;5136635;27;20438;-55
2021/01/19 11:29:11;;;;;;;7.80;4.37;;;;;;;2.19;95.78;99714.69;5137193;27;20525;-47
2021/01/19 11:31:38;;;;;;;7.30;3.97;;;;;;;2.24;95.88;99709.06;5136574;28;20535;-55
2021/01/19 11:34:07;;;;;;;10.10;4.80;;;;;;;2.21;95.79;99708.00;5136498;28;20463;-51
2021/01/19 11:36:35;;;;;;;5.90;3.80;;;;;;;2.23;95.98;99706.41;5134842;28;20486;-52
2021/01/19 11:39:04;;;;;;;11.77;4.60;;;;;;;2.34;96.16;99694.31;5137040;28;20452;-52